KNFL/NFL METAR and TAF weather

Enter ICAO airport designator
Station Type Date Time Source
KNFL METAR 2019/06/26 19:56 UTC NOAA

KNFL 261956Z 25012G17KT 10SM SCT070 SCT150 28/M03 A2989 RMK AO2 SLP095 ACSL DSNT NE-SE-SW T02781028


Station Type Date Time Source
KNFL Decoded METAR 2019/06/26 19:56 UTC NOAA

FALLON NAVAL AIR STATION, NV, United States (KNFL) 39-26N 118-41W 1199M
Jun 26, 2019 - 03:56 PM EDT / 2019.06.26 1956 UTC
Wind: from the WSW (250 degrees) at 14 MPH (12 KT) gusting to 20 MPH (17 KT):0
Visibility: 10 mile(s):0
Sky conditions: partly cloudy
Temperature: 82.0 F (27.8 C)
Dew Point: 27.0 F (-2.8 C)
Relative Humidity: 13%
Pressure (altimeter): 29.89 in. Hg (1012 hPa)
ob: KNFL 261956Z 25012G17KT 10SM SCT070 SCT150 28/M03 A2989 RMK AO2 SLP095 ACSL DSNT NE-SE-SW T02781028
cycle: 20

Station Type Date Time Source
KNFL TAF 2019/06/26 15:03 UTC NOAA

TAF KNFL 2615/2715 VRB06KT 9999 SCT100 SCT150 SCT250 QNH2988INS
BECMG 2617/2619 26015G24KT 520209 521107 QNH2982INS
FM262300 27018G28KT 9999 FEW070 SCT250 520009 520909 QNH2978INS
FM270600 27008KT 9999 FEW250 500000 QNH2985INS T33/2623Z T12/2712Z FS30003

Example: see airport list